メインページ
METAR-TAF:

METAR-TAF

空港 :

チャーチル, マニトバ州, カナダ

緯度: 58-44N, 経度: 094-04W, 海抜: 28m

現時点の気象観測

当レポートは25分前の16:00(UTC)に作成
西/北西の風 12kt、最大18ktの突風を伴う
気温 -12°C
湿度 85%
気圧 1004 hPa
視程: 16.1km
高度4600ftの雲は散在している
高度11000ftの千切れ雲あり
氷晶

METAR: CYYQ 221600Z 29012G18KT 10SM IC SCT046 BKN110 M12/M14 A2966 RMK SC3AC4 SLP050

時間: 10:25 (16:25 UTC)

予報

当レポートは4時間47分前の11:38(UTC)に作成
予報は22日の 12時(UTC)から 23日の 12時(UTC)まで有効
西の風 18kt、最大28ktの突風を伴う
視程: 10km
高度1200ftの雲は散在している
高度5000ftの千切れ雲あり
22日の 12時(UTC)から 22日の 15時(UTC)まで一時的に
視程: 6.4km
高度1200ftの千切れ雲あり
高度5000ftの曇り
小雪
22日の 1500時(UTC)から
西の風 15kt、最大25ktの突風を伴う
視程: 10km
高度1200ftの雲は散在している
高度2500ftの曇り
小雪
22日の 15時(UTC)から 23日の 04時(UTC)まで一時的に
視程: 6.4km
高度1200ftの曇り
小雪
23日の 0400時(UTC)から
北西の風 20kt、最大30ktの突風を伴う
視程: 10km
高度1200ftの千切れ雲あり

TAF: CYYQ 221138Z 2212/2312 28018G28KT P6SM SCT012 BKN050 TEMPO 2212/2215 4SM -SN BKN012 OVC050 FM221500 27015G25KT P6SM -SN SCT012 OVC025 TEMPO 2215/2304 4SM -SN OVC012 FM230400 31020G30KT P6SM BKN012 RMK NXT FCST BY 221800Z

4,000以上の空港の気象観測と天気予報(METAR報とTAF報)

利用可能な観測所は地図上に黄色い丸と赤い丸で示す。

丸の上にカーソルを重ねると観測所名を参照できる。

次にクリックすると気象観測と天気予報を参照できる。

マップの切り替え:黒色「×」印の緑ボタンをクリックして拡大、「-」印の緑ボタンをクリックして縮小、緑色の三角印をクリックして隣りの地図に切り替え


METAR-TAF: